Time;durP1;ratioP1;P1;durP2;ratioP2;P2;SDS_P1;SDS_P2;PMS_P1;PMS_P2;Temp;Humidity;BMP_temperature;BMP_pressure;BME280_temperature;BME280_humidity;BME280_pressure;Samples;Min_cycle;Max_cycle;Signal;HPM_P1;HPM_P2
2023/09/12 00:02:09;;;;;;;46.42;31.10;;;;;;;;;;5108062;28;20051;-62
2023/09/12 00:04:35;;;;;;;42.55;30.17;;;;;;;;;;5111929;28;20043;-62
2023/09/12 00:07:02;;;;;;;43.15;30.15;;;;;;;;;;5094129;28;20044;-61
2023/09/12 00:09:28;;;;;;;46.42;31.30;;;;;;;;;;5111475;28;20047;-61
2023/09/12 00:11:54;;;;;;;42.70;30.08;;;;;;;;;;5094682;28;20051;-61
2023/09/12 00:14:23;;;;;;;47.70;30.98;;;;;;;;;;5107302;28;20048;-61
2023/09/12 00:16:52;;;;;;;49.30;31.58;;;;;;;;;;5095219;28;20111;-61
2023/09/12 00:19:18;;;;;;;42.47;29.98;;;;;;;;;;5105584;28;20494;-61
2023/09/12 00:21:44;;;;;;;40.60;28.63;;;;;;;;;;5112155;28;20047;-61
2023/09/12 00:24:10;;;;;;;49.20;31.48;;;;;;;;;;5110135;28;20047;-61
2023/09/12 00:26:36;;;;;;;51.35;32.28;;;;;;;;;;5099095;28;20043;-61
2023/09/12 00:29:02;;;;;;;47.50;31.63;;;;;;;;;;5093739;28;20092;-61
2023/09/12 00:31:31;;;;;;;54.45;32.80;;;;;;;;;;5111374;28;20031;-61
2023/09/12 00:33:57;;;;;;;51.55;32.33;;;;;;;;;;5111776;28;20035;-61
2023/09/12 00:36:23;;;;;;;48.40;31.52;;;;;;;;;;5111184;28;20044;-62
2023/09/12 00:38:49;;;;;;;52.00;30.95;;;;;;;;;;5115179;28;20474;-62
2023/09/12 00:41:15;;;;;;;52.42;33.05;;;;;;;;;;5115163;28;20525;-61
2023/09/12 00:43:41;;;;;;;51.22;33.63;;;;;;;;;;5109645;28;20118;-61
2023/09/12 00:46:07;;;;;;;52.95;31.77;;;;;;;;;;5114602;28;20028;-61
2023/09/12 00:48:34;;;;;;;50.05;32.90;;;;;;;;;;5113893;28;20121;-61
2023/09/12 00:51:01;;;;;;;51.80;34.58;;;;;;;;;;5110833;28;20035;-61
2023/09/12 00:53:27;;;;;;;52.22;32.63;;;;;;;;;;5097620;28;20044;-61
2023/09/12 00:55:56;;;;;;;58.53;34.90;;;;;;;;;;5104939;28;20054;-61
2023/09/12 00:58:23;;;;;;;46.95;32.90;;;;;;;;;;5103411;28;20044;-61
2023/09/12 01:00:51;;;;;;;49.75;33.58;;;;;;;;;;5095948;28;20040;-61
2023/09/12 01:03:18;;;;;;;56.30;33.90;;;;;;;;;;5114091;28;20036;-61
2023/09/12 01:05:44;;;;;;;50.00;32.90;;;;;;;;;;5114691;28;20046;-61
2023/09/12 01:08:10;;;;;;;48.47;31.60;;;;;;;;;;5080180;28;20070;-62
2023/09/12 01:10:36;;;;;;;46.13;30.75;;;;;;;;;;5099419;28;20153;-62
2023/09/12 01:13:03;;;;;;;51.47;32.50;;;;;;;;;;5097270;28;20044;-62
2023/09/12 01:15:29;;;;;;;52.83;33.85;;;;;;;;;;5085170;28;20126;-62
2023/09/12 01:17:55;;;;;;;49.05;33.53;;;;;;;;;;5095636;28;20043;-61
2023/09/12 01:20:28;;;;;;;52.15;32.92;;;;;;;;;;5095101;28;20047;-61
2023/09/12 01:23:48;;;;;;;49.83;31.58;;;18.40;99.90;;;;;;5093983;28;20073;-61
2023/09/12 01:26:24;;;;;;;53.38;33.63;;;;;;;;;;5010233;28;20049;-62
2023/09/12 01:28:51;;;;;;;46.28;31.15;;;18.70;99.90;;;;;;5007106;28;20593;-61
2023/09/12 01:31:17;;;;;;;54.75;33.33;;;;;;;;;;5007807;28;20101;-61
2023/09/12 01:33:43;;;;;;;48.60;31.35;;;;;;;;;;5009830;28;20037;-61
2023/09/12 01:36:10;;;;;;;57.55;34.85;;;;;;;;;;5010709;28;20053;-62
2023/09/12 01:38:36;;;;;;;52.67;34.78;;;;;;;;;;4996438;28;20065;-61
2023/09/12 01:41:03;;;;;;;52.50;32.65;;;;;;;;;;4994856;28;20529;-62
2023/09/12 01:43:31;;;;;;;56.55;34.97;;;;;;;;;;5008390;28;20116;-62
2023/09/12 01:45:59;;;;;;;60.95;35.13;;;;;;;;;;5011134;28;20038;-62
2023/09/12 01:48:28;;;;;;;59.95;35.40;;;;;;;;;;5010146;28;20053;-62
2023/09/12 01:50:54;;;;;;;57.90;35.77;;;;;;;;;;5010291;28;20081;-61
2023/09/12 01:53:20;;;;;;;67.68;37.33;;;;;;;;;;5010424;28;20296;-61
2023/09/12 01:55:48;;;;;;;54.83;33.70;;;;;;;;;;5011531;28;20057;-61
2023/09/12 01:58:14;;;;;;;56.80;34.22;;;;;;;;;;5010966;28;20078;-61
2023/09/12 02:00:40;;;;;;;64.60;34.60;;;;;;;;;;5018693;28;20045;-61
2023/09/12 02:03:06;;;;;;;59.60;33.65;;;;;;;;;;5070229;28;20056;-61
2023/09/12 02:05:33;;;;;;;141.68;32.83;;;;;;;;;;5100814;28;20042;-61
2023/09/12 02:08:01;;;;;;;75.15;32.45;;;;;;;;;;5114800;28;20169;-61
2023/09/12 02:10:27;;;;;;;88.72;34.17;;;;;;;;;;5095027;28;20540;-61
2023/09/12 02:12:53;;;;;;;46.70;29.63;;;;;;;;;;5113788;28;20032;-61
2023/09/12 02:15:22;;;;;;;62.40;34.38;;;;;;;;;;5112222;28;20042;-61
2023/09/12 02:17:50;;;;;;;44.83;30.90;;;;;;;;;;5112766;28;20042;-61
2023/09/12 02:20:16;;;;;;;174.18;34.10;;;;;;;;;;5112704;28;20040;-61
2023/09/12 02:22:42;;;;;;;155.73;34.50;;;;;;;;;;5103150;28;20093;-61
2023/09/12 02:25:08;;;;;;;447.63;42.80;;;;;;;;;;5114171;28;20054;-61
2023/09/12 02:27:35;;;;;;;199.63;36.75;;;;;;;;;;5094166;28;20487;-61
2023/09/12 02:30:01;;;;;;;121.63;37.20;;;;;;;;;;5093214;28;20032;-61
2023/09/12 02:32:27;;;;;;;149.25;40.53;;;;;;;;;;5093594;28;20395;-61
2023/09/12 02:34:53;;;;;;;114.78;41.20;;;;;;;;;;5111844;28;20040;-61
2023/09/12 02:37:19;;;;;;;56.10;35.08;;;;;;;;;;5113196;28;20053;-61
2023/09/12 02:39:45;;;;;;;77.28;42.15;;;;;;;;;;5109492;28;20039;-61
2023/09/12 02:42:11;;;;;;;87.45;41.97;;;;;;;;;;5097523;28;20374;-61
2023/09/12 02:44:37;;;;;;;82.70;42.67;;;;;;;;;;5110829;28;20076;-61
2023/09/12 02:47:04;;;;;;;72.95;42.50;;;;;;;;;;5104899;28;20036;-61
2023/09/12 02:49:30;;;;;;;89.22;44.70;;;;;;;;;;5062342;28;20048;-60
2023/09/12 02:51:56;;;;;;;84.05;44.22;;;;;;;;;;5112081;28;20044;-61
2023/09/12 02:54:22;;;;;;;82.05;44.13;;;;;;;;;;5113604;28;20042;-61
2023/09/12 02:56:48;;;;;;;90.70;45.17;;;;;;;;;;5077646;28;20048;-60
2023/09/12 02:59:14;;;;;;;92.95;46.08;;;;;;;;;;5110759;28;20058;-61
2023/09/12 03:01:40;;;;;;;96.03;47.17;;;;;;;;;;5113057;28;20039;-60
2023/09/12 03:04:07;;;;;;;102.53;49.05;;;;;;;;;;5108641;28;20130;-61
2023/09/12 03:06:33;;;;;;;106.55;49.22;;;;;;;;;;5105673;28;20036;-61
2023/09/12 03:08:59;;;;;;;101.25;48.78;;;;;;;;;;5112876;28;20079;-61
2023/09/12 03:11:29;;;;;;;91.35;47.47;;;;;;;;;;5094760;28;20090;-61
2023/09/12 03:13:55;;;;;;;87.93;44.53;;;;;;;;;;5107733;28;20051;-61
2023/09/12 03:16:23;;;;;;;88.55;44.58;;;;;;;;;;5112407;28;20047;-61
2023/09/12 03:18:50;;;;;;;89.55;45.20;;;;;;;;;;5112452;28;20051;-61
2023/09/12 03:21:16;;;;;;;106.57;47.60;;;;;;;;;;5108847;28;20051;-61
2023/09/12 03:23:42;;;;;;;104.25;48.28;;;;;;;;;;5105210;28;20052;-61
2023/09/12 03:26:08;;;;;;;99.70;48.05;;;;;;;;;;5092322;28;20399;-61
2023/09/12 03:28:34;;;;;;;105.35;48.97;;;;;;;;;;5083514;28;20039;-61
2023/09/12 03:31:04;;;;;;;97.90;47.80;;;;;;;;;;5094496;28;20048;-60
2023/09/12 03:33:30;;;;;;;;;;;;;;;;;;5108891;28;20058;-61
2023/09/12 03:35:56;;;;;;;103.15;48.50;;;;;;;;;;5092575;28;19919;-61
2023/09/12 03:38:22;;;;;;;90.78;46.40;;;;;;;;;;5100072;28;20499;-60
2023/09/12 03:40:48;;;;;;;88.22;46.08;;;;;;;;;;5112011;28;20061;-60
2023/09/12 03:43:14;;;;;;;103.18;48.80;;;;;;;;;;5110716;28;20039;-61
2023/09/12 03:45:40;;;;;;;107.63;49.63;;;;;;;;;;5112795;28;20035;-60
2023/09/12 03:48:06;;;;;;;103.45;47.45;;;;;;;;;;5107799;28;20050;-61
2023/09/12 03:50:32;;;;;;;104.35;49.88;;;;;;;;;;5109193;28;20049;-61
2023/09/12 03:52:58;;;;;;;95.10;47.42;;;;;;;;;;5099079;28;20122;-60
2023/09/12 03:55:27;;;;;;;97.93;47.88;;;;;;;;;;5108692;28;20048;-61
2023/09/12 03:57:54;;;;;;;104.57;49.10;;;;;;;;;;5102429;28;20101;-60
2023/09/12 04:00:20;;;;;;;88.80;46.97;;;;;;;;;;5090656;28;20127;-61
2023/09/12 04:02:48;;;;;;;95.30;47.53;;;;;;;;;;5109989;28;20079;-61
2023/09/12 04:05:15;;;;;;;81.57;43.72;;;;;;;;;;5093427;28;20039;-61
2023/09/12 04:07:41;;;;;;;95.57;46.20;;;;;;;;;;5112068;28;20120;-61
2023/09/12 04:10:07;;;;;;;107.43;49.03;;;;;;;;;;5111755;28;20043;-61
2023/09/12 04:12:33;;;;;;;91.47;45.22;;;;;;;;;;5109724;28;20055;-61
2023/09/12 04:14:59;;;;;;;91.97;45.35;;;;;;;;;;5102543;28;20689;-61
2023/09/12 04:17:25;;;;;;;108.25;48.13;;;;;;;;;;5111221;28;20042;-60
2023/09/12 04:19:51;;;;;;;106.63;48.08;;;;;;;;;;5107794;28;20035;-60
2023/09/12 04:22:17;;;;;;;84.47;44.65;;;;;;;;;;5109661;28;20165;-61
2023/09/12 04:24:43;;;;;;;107.63;48.58;;;;;;;;;;5110853;28;20039;-61
2023/09/12 04:27:09;;;;;;;90.07;45.17;;;;;;;;;;5107702;28;20040;-61
2023/09/12 04:29:35;;;;;;;92.45;46.38;;;;;;;;;;5075228;28;20046;-60
2023/09/12 04:32:04;;;;;;;91.50;45.92;;;;;;;;;;5104275;28;20121;-60
2023/09/12 04:34:31;;;;;;;101.70;47.88;;;;;;;;;;5106563;28;20067;-60
2023/09/12 04:36:57;;;;;;;89.88;44.33;;;;;;;;;;5112109;28;20717;-61
2023/09/12 04:39:23;;;;;;;91.15;44.20;;;;;;;;;;5092427;28;20048;-61
2023/09/12 04:41:49;;;;;;;98.00;46.17;;;;;;;;;;5088166;28;20071;-61
2023/09/12 04:44:15;;;;;;;78.55;42.70;;;;;;;;;;5103758;28;20075;-60
2023/09/12 04:46:41;;;;;;;87.70;44.17;;;;;;;;;;5080961;28;20044;-61
2023/09/12 04:49:07;;;;;;;88.93;44.15;;;;;;;;;;5096085;28;20044;-61
2023/09/12 04:51:34;;;;;;;89.25;42.33;;;;;;;;;;5098589;28;20083;-61
2023/09/12 04:54:00;;;;;;;97.07;44.55;;;;;;;;;;5073815;28;20094;-61
2023/09/12 04:56:26;;;;;;;125.82;49.45;;;;;;;;;;5110687;28;20563;-61
2023/09/12 04:58:52;;;;;;;99.70;48.47;;;;;;;;;;5092507;28;20428;-61
2023/09/12 05:01:18;;;;;;;101.97;45.92;;;;;;;;;;5078756;28;20126;-62
2023/09/12 05:03:45;;;;;;;109.50;46.92;;;;;;;;;;5089367;28;20051;-61
2023/09/12 05:06:11;;;;;;;97.00;46.40;;;;;;;;;;5109896;28;20028;-61
2023/09/12 05:08:37;;;;;;;104.70;47.58;;;;;;;;;;5100587;28;20040;-61
2023/09/12 05:11:03;;;;;;;103.40;47.67;;;;;;;;;;5090910;28;20098;-62
2023/09/12 05:13:29;;;;;;;102.15;47.03;;;;;;;;;;5093199;28;20111;-61
2023/09/12 05:15:56;;;;;;;107.70;47.08;;;;;;;;;;5093284;28;20047;-60
2023/09/12 05:18:22;;;;;;;95.22;46.42;;;;;;;;;;5107142;28;20100;-60
2023/09/12 05:20:49;;;;;;;90.00;44.85;;;;;;;;;;5109265;28;20040;-61
2023/09/12 05:23:15;;;;;;;165.88;44.60;;;;;;;;;;5088554;28;20036;-61
2023/09/12 05:25:41;;;;;;;65.18;37.33;;;;;;;;;;5112921;28;20043;-61
2023/09/12 05:28:07;;;;;;;115.78;42.15;;;;;;;;;;5111539;28;20035;-61
2023/09/12 05:30:34;;;;;;;70.70;38.65;;;;;;;;;;5109285;28;20047;-61
2023/09/12 05:33:00;;;;;;;159.20;44.28;;;;;;;;;;5090493;28;20048;-60
2023/09/12 05:35:26;;;;;;;71.28;38.33;;;;;;;;;;5099987;28;20134;-61
2023/09/12 05:37:52;;;;;;;73.63;38.50;;;;;;;;;;5076199;28;20058;-61
2023/09/12 05:40:19;;;;;;;77.22;41.30;;;;;;;;;;5097838;28;20043;-61
2023/09/12 05:42:45;;;;;;;92.20;39.85;;;;;;;;;;5106046;28;20176;-61
2023/09/12 05:45:11;;;;;;;108.80;41.97;;;;;;;;;;5093527;28;20152;-61
2023/09/12 05:47:37;;;;;;;85.85;41.72;;;;;;;;;;5095962;28;20364;-61
2023/09/12 05:50:06;;;;;;;76.18;40.08;;;;;;;;;;5112656;28;20534;-61
2023/09/12 05:52:32;;;;;;;77.75;38.45;;;;;;;;;;5112907;28;20493;-60
2023/09/12 05:54:58;;;;;;;90.57;42.47;;;;;;;;;;5112131;28;20050;-61
2023/09/12 05:57:24;;;;;;;82.13;43.20;;;;;;;;;;5097694;28;20054;-61
2023/09/12 05:59:51;;;;;;;109.53;44.97;;;;;;;;;;5096840;28;20047;-61
2023/09/12 06:02:17;;;;;;;95.03;45.30;;;;;;;;;;5094439;28;20143;-61
2023/09/12 06:04:43;;;;;;;107.50;48.15;;;;;;;;;;5114865;28;20036;-60
2023/09/12 06:07:09;;;;;;;102.57;49.40;;;;;;;;;;5113042;28;20039;-61
2023/09/12 06:09:36;;;;;;;124.80;53.50;;;;;;;;;;5114683;28;20067;-62
2023/09/12 06:12:02;;;;;;;118.72;52.78;;;;;;;;;;5111698;28;20857;-62
2023/09/12 06:14:28;;;;;;;159.02;61.03;;;;;;;;;;5114710;28;20135;-62
2023/09/12 06:16:54;;;;;;;149.05;62.17;;;;;;;;;;5099377;28;20054;-62
2023/09/12 06:19:20;;;;;;;151.43;65.80;;;;;;;;;;5114311;28;20482;-62
2023/09/12 06:21:46;;;;;;;141.70;65.45;;;;;;;;;;5110671;28;20075;-63
2023/09/12 06:24:17;;;;;;;218.20;77.80;;;;;;;;;;5113114;28;20043;-62
2023/09/12 06:26:44;;;;;;;204.93;80.88;;;;;;;;;;5096065;28;20122;-62
2023/09/12 06:29:10;;;;;;;205.35;84.68;;;;;;;;;;5114120;28;20039;-62
2023/09/12 06:31:36;;;;;;;229.70;91.40;;;;;;;;;;5113583;28;20031;-62
2023/09/12 06:34:02;;;;;;;195.18;83.85;;;;;;;;;;5109794;28;20498;-62
2023/09/12 06:36:29;;;;;;;209.70;90.00;;;;;;;;;;5112382;28;20531;-62
2023/09/12 06:38:56;;;;;;;206.60;86.65;;;;;;;;;;5111310;28;20071;-63
2023/09/12 06:41:22;;;;;;;196.15;84.57;;;;;;;;;;5110614;28;20531;-62
2023/09/12 06:43:48;;;;;;;159.43;74.05;;;;;;;;;;5113948;28;20039;-63
2023/09/12 06:46:17;;;;;;;199.68;89.18;;;;;;;;;;5095451;28;20055;-63
2023/09/12 06:48:44;;;;;;;231.75;98.60;;;;;;;;;;5114051;28;20463;-63
2023/09/12 06:51:10;;;;;;;196.20;90.22;;;;;;;;;;5094679;28;20505;-63
2023/09/12 06:53:39;;;;;;;266.85;106.82;;;;;;;;;;5111977;28;20046;-62
2023/09/12 06:56:05;;;;;;;347.20;138.43;;;;;;;;;;5109627;28;20609;-63
2023/09/12 06:58:32;;;;;;;356.52;149.75;;;;;;;;;;5094963;28;20047;-63
2023/09/12 07:01:07;;;;;;;325.63;137.07;;;;;;;;;;5113799;28;20100;-63
2023/09/12 07:03:34;;;;;;;325.42;144.07;;;;;;;;;;5110794;28;20035;-62
2023/09/12 07:06:00;;;;;;;326.13;145.43;;;;;;;;;;5093422;28;20039;-63
2023/09/12 07:08:27;;;;;;;328.50;146.07;;;;;;;;;;5113351;28;20047;-63
2023/09/12 07:10:54;;;;;;;312.35;143.95;;;;;;;;;;5109486;28;20039;-63
2023/09/12 07:13:21;;;;;;;328.02;145.52;;;;;;;;;;5110897;28;20039;-63
2023/09/12 07:15:47;;;;;;;226.38;105.88;;;;;;;;;;5093419;28;20483;-63
2023/09/12 07:18:14;;;;;;;191.90;89.50;;;;;;;;;;5093599;28;20096;-63
2023/09/12 07:20:41;;;;;;;139.23;68.78;;;;;;;;;;5112793;28;20434;-63
2023/09/12 07:23:10;;;;;;;128.02;65.32;;;;;;;;;;5111447;28;20089;-63
2023/09/12 07:25:40;;;;;;;153.77;73.78;;;;;;;;;;5113117;28;20042;-63
2023/09/12 07:28:06;;;;;;;186.20;91.07;;;;;;;;;;5112808;28;20100;-63
2023/09/12 07:30:32;;;;;;;186.00;90.43;;;;;;;;;;5110900;28;20379;-63
2023/09/12 07:32:58;;;;;;;154.88;76.65;;;;;;;;;;5111631;28;20039;-63
2023/09/12 07:35:24;;;;;;;123.63;64.40;;;;;;;;;;5109441;28;20432;-62
2023/09/12 07:37:51;;;;;;;119.13;60.58;;;;;;;;;;5109985;28;20036;-62
2023/09/12 07:40:17;;;;;;;113.18;56.58;;;;;;;;;;5110620;28;20040;-63
2023/09/12 07:42:43;;;;;;;107.30;54.88;;;;;;;;;;5110437;28;20044;-63
2023/09/12 07:45:09;;;;;;;97.55;51.85;;;;;;;;;;5108077;28;20043;-61
2023/09/12 07:47:36;;;;;;;94.22;50.08;;;;;;;;;;5092523;28;20078;-61
2023/09/12 07:50:02;;;;;;;96.93;50.15;;;;;;;;;;5111600;28;20035;-61
2023/09/12 07:52:29;;;;;;;94.85;50.65;;;;;;;;;;5112193;28;20110;-62
2023/09/12 07:55:02;;;;;;;95.18;51.80;;;;;;;;;;5110763;28;20036;-62
2023/09/12 07:57:29;;;;;;;96.93;50.20;;;;;;;;;;5109898;28;20054;-62
2023/09/12 07:59:55;;;;;;;107.47;54.53;;;;;;;;;;5111334;28;20492;-61
2023/09/12 08:02:21;;;;;;;120.80;62.30;;;;;;;;;;5107806;28;20046;-62
2023/09/12 08:04:50;;;;;;;116.97;59.53;;;;;;;;;;5108361;28;20059;-63
2023/09/12 08:07:18;;;;;;;143.90;74.72;;;;;;;;;;5110815;28;20043;-61
2023/09/12 08:09:58;;;;;;;141.18;76.00;;;;;;;;;;5110594;28;20063;-61
2023/09/12 08:12:25;;;;;;;150.20;82.43;;;20.60;99.90;;;;;;5108164;28;20117;-61
2023/09/12 08:14:51;;;;;;;132.35;74.22;;;;;;;;;;5092730;28;20038;-61
2023/09/12 08:17:18;;;;;;;156.63;84.30;;;;;;;;;;5110311;28;20039;-61
2023/09/12 08:19:44;;;;;;;158.25;84.88;;;;;;;;;;5092242;28;20043;-61
2023/09/12 08:22:11;;;;;;;151.23;82.03;;;21.10;99.90;;;;;;5110327;28;20079;-61
2023/09/12 08:24:38;;;;;;;134.70;71.68;;;;;;;;;;5110165;28;20031;-61
2023/09/12 08:27:05;;;;;;;123.53;68.90;;;;;;;;;;5092942;28;20459;-61
2023/09/12 08:29:32;;;;;;;116.18;64.80;;;;;;;;;;5111322;28;20055;-61
2023/09/12 08:31:58;;;;;;;107.00;59.22;;;;;;;;;;5111132;28;20043;-61
2023/09/12 08:34:25;;;;;;;100.32;57.22;;;;;;;;;;5109137;28;20050;-61
2023/09/12 08:36:51;;;;;;;93.85;54.72;;;;;;;;;;5108505;28;20048;-61
2023/09/12 08:39:25;;;;;;;88.55;53.10;;;21.20;99.90;;;;;;5109842;28;20089;-61
2023/09/12 08:41:52;;;;;;;92.15;53.03;;;;;;;;;;5106892;28;20039;-61
2023/09/12 08:44:20;;;;;;;82.50;47.65;;;21.50;99.90;;;;;;5090689;28;20359;-62
2023/09/12 08:46:46;;;;;;;82.32;51.47;;;;;;;;;;5110938;28;20090;-62
2023/09/12 08:49:13;;;;;;;84.60;51.05;;;;;;;;;;5110649;28;20459;-61
2023/09/12 08:51:39;;;;;;;85.43;51.85;;;21.80;99.90;;;;;;5111204;28;20043;-61
2023/09/12 08:54:06;;;;;;;84.75;50.60;;;;;;;;;;5074259;28;20032;-61
2023/09/12 08:56:34;;;;;;;91.22;52.72;;;21.80;99.90;;;;;;5109689;28;20047;-61
2023/09/12 08:59:01;;;;;;;89.07;50.38;;;;;;;;;;5114228;28;20059;-61
2023/09/12 09:01:30;;;;;;;83.88;50.42;;;;;;;;;;5113091;28;20047;-61
2023/09/12 09:03:57;;;;;;;82.75;50.83;;;21.90;99.90;;;;;;5115291;28;20036;-61
2023/09/12 09:06:24;;;;;;;83.35;48.67;;;;;;;;;;5114734;28;20077;-61
2023/09/12 09:08:53;;;;;;;80.07;50.55;;;;;;;;;;5114935;28;20055;-61
2023/09/12 09:11:18;;;;;;;90.97;52.38;;;22.40;99.90;;;;;;5112446;28;20044;-61
2023/09/12 09:13:44;;;;;;;77.95;47.70;;;22.40;99.90;;;;;;5113661;28;20043;-61
2023/09/12 09:16:14;;;;;;;72.18;43.50;;;;;;;;;;5113534;28;20032;-61
2023/09/12 09:19:01;;;;;;;58.33;35.28;;;22.70;99.90;;;;;;5093724;28;20040;-61
2023/09/12 09:21:31;;;;;;;68.47;40.10;;;22.50;99.90;;;;;;5095625;28;20050;-61
2023/09/12 09:24:05;;;;;;;61.05;35.92;;;22.40;99.90;;;;;;5113800;28;20043;-62
2023/09/12 09:26:48;;;;;;;49.22;32.90;;;22.60;99.90;;;;;;5113773;28;20118;-62
2023/09/12 09:29:21;;;;;;;56.60;34.30;;;;;;;;;;5113673;28;20048;-62
2023/09/12 09:31:49;;;;;;;53.08;32.92;;;22.30;99.90;;;;;;5109865;28;20046;-62
2023/09/12 09:34:19;;;;;;;53.75;33.30;;;22.00;99.90;;;;;;5114161;28;20484;-62
2023/09/12 09:36:49;;;;;;;;;;;22.10;99.90;;;;;;5113669;28;20487;-62
2023/09/12 09:39:19;;;;;;;41.90;28.02;;;22.30;99.90;;;;;;5113623;28;19915;-62
2023/09/12 09:41:45;;;;;;;;;;;;;;;;;;5115770;28;20039;-62
2023/09/12 09:44:15;;;;;;;44.38;26.77;;;;;;;;;;5110138;28;19919;-61
2023/09/12 09:46:43;;;;;;;37.28;24.67;;;22.70;99.90;;;;;;5108241;28;20054;-62
2023/09/12 09:49:17;;;;;;;37.45;24.25;;;22.90;99.90;;;;;;5096723;28;20036;-62
2023/09/12 09:51:48;;;;;;;35.13;22.50;;;23.30;99.90;;;;;;5103354;28;20051;-62
2023/09/12 09:54:14;;;;;;;32.40;22.60;;;23.40;99.90;;;;;;5114959;28;20180;-62
2023/09/12 09:56:48;;;;;;;34.45;22.30;;;23.40;99.90;;;;;;5114916;28;20133;-62
2023/09/12 09:59:22;;;;;;;36.90;22.10;;;23.80;99.90;;;;;;5112166;28;20032;-62
2023/09/12 10:01:51;;;;;;;32.08;21.70;;;23.90;99.90;;;;;;5111786;28;20107;-61
2023/09/12 10:04:18;;;;;;;34.90;21.63;;;23.90;99.90;;;;;;5113609;28;20035;-62
2023/09/12 10:06:45;;;;;;;33.40;22.45;;;23.80;99.90;;;;;;5112986;28;20470;-62
2023/09/12 10:09:13;;;;;;;36.60;23.25;;;24.00;99.90;;;;;;5113814;28;20046;-62
2023/09/12 10:11:40;;;;;;;31.65;21.77;;;24.00;99.90;;;;;;5112346;28;20039;-62
2023/09/12 10:14:09;;;;;;;34.95;22.20;;;24.00;99.90;;;;;;5092234;28;20133;-62
2023/09/12 10:16:38;;;;;;;30.23;19.73;;;24.20;99.90;;;;;;5104519;28;20125;-62
2023/09/12 10:19:13;;;;;;;33.45;20.80;;;24.40;99.90;;;;;;5114233;28;20039;-62
2023/09/12 10:22:00;;;;;;;32.03;20.92;;;25.00;99.90;;;;;;5106096;28;20118;-62
2023/09/12 10:24:28;;;;;;;36.05;20.25;;;24.80;99.90;;;;;;5112442;28;20046;-62
2023/09/12 10:26:55;;;;;;;27.88;19.35;;;25.30;99.90;;;;;;5113964;28;20034;-62
2023/09/12 10:29:22;;;;;;;26.00;17.83;;;24.90;99.90;;;;;;5113850;28;20036;-62
2023/09/12 10:31:48;;;;;;;23.13;14.88;;;25.00;99.90;;;;;;5106927;28;20413;-62
2023/09/12 10:34:15;;;;;;;28.52;17.83;;;24.80;99.90;;;;;;5110128;28;20047;-62
2023/09/12 10:36:45;;;;;;;31.73;18.60;;;25.00;99.90;;;;;;5112442;28;20125;-62
2023/09/12 10:39:13;;;;;;;28.38;16.73;;;25.00;99.90;;;;;;5097087;28;20028;-62
2023/09/12 10:41:40;;;;;;;27.83;17.40;;;24.70;99.90;;;;;;5102157;28;20048;-62
2023/09/12 10:44:11;;;;;;;28.77;17.38;;;24.80;99.90;;;;;;5113568;28;20074;-62
2023/09/12 10:46:40;;;;;;;23.65;15.75;;;24.80;99.90;;;;;;5112482;28;20101;-62
2023/09/12 10:49:08;;;;;;;25.35;15.32;;;24.80;99.90;;;;;;5111616;28;20208;-62
2023/09/12 10:51:39;;;;;;;26.33;18.85;;;24.70;99.90;;;;;;5112033;28;20052;-62
2023/09/12 10:54:12;;;;;;;34.17;19.80;;;24.70;99.90;;;;;;5110690;28;20039;-61
2023/09/12 10:56:41;;;;;;;27.15;16.58;;;24.60;99.90;;;;;;5099806;28;20043;-61
2023/09/12 10:59:10;;;;;;;25.58;15.77;;;;;;;;;;5095205;28;20059;-61
2023/09/12 11:01:46;;;;;;;21.63;13.73;;;24.40;99.90;;;;;;5112541;28;20495;-61
2023/09/12 11:04:27;;;;;;;21.40;13.65;;;24.40;99.90;;;;;;5112280;28;20487;-61
2023/09/12 11:06:53;;;;;;;22.52;13.65;;;24.80;99.90;;;;;;5113945;28;20035;-62
2023/09/12 11:09:22;;;;;;;24.90;15.18;;;24.70;99.90;;;;;;5113391;28;20078;-62
2023/09/12 11:12:02;;;;;;;24.38;15.43;;;24.70;99.90;;;;;;5109907;28;20127;-61
2023/09/12 11:14:32;;;;;;;23.00;15.10;;;24.80;99.90;;;;;;5078804;28;20092;-61
2023/09/12 11:17:07;;;;;;;24.23;15.40;;;25.20;99.90;;;;;;5111671;28;20047;-62
2023/09/12 11:19:51;;;;;;;22.08;14.35;;;24.90;99.90;;;;;;5113317;28;20043;-61
2023/09/12 11:22:25;;;;;;;17.42;12.35;;;25.20;99.90;;;;;;5093114;28;20372;-61
2023/09/12 11:24:51;;;;;;;17.85;11.35;;;25.20;99.90;;;;;;5113364;28;20039;-61
2023/09/12 11:27:17;;;;;;;14.38;9.02;;;25.30;99.90;;;;;;5112610;28;20043;-62
2023/09/12 11:29:43;;;;;;;14.20;8.80;;;25.30;99.90;;;;;;5112511;28;20078;-61
2023/09/12 11:32:09;;;;;;;14.20;9.07;;;;;;;;;;5093825;28;20054;-62
2023/09/12 11:34:42;;;;;;;13.18;8.77;;;25.30;99.90;;;;;;5093650;28;20055;-61
2023/09/12 11:37:08;;;;;;;13.00;8.70;;;;;;;;;;5112809;28;20055;-62
2023/09/12 11:39:36;;;;;;;15.73;9.57;;;25.60;99.90;;;;;;5111458;28;20047;-61
2023/09/12 11:42:04;;;;;;;16.73;10.32;;;25.80;99.90;;;;;;5091217;28;20118;-62
2023/09/12 11:44:31;;;;;;;15.95;8.60;;;25.70;99.90;;;;;;5112614;28;20047;-61
2023/09/12 11:47:06;;;;;;;16.38;10.18;;;26.20;99.90;;;;;;5110494;28;20077;-62
2023/09/12 11:49:40;;;;;;;15.55;10.93;;;26.00;99.90;;;;;;5093802;28;20057;-62
2023/09/12 11:52:12;;;;;;;16.85;11.27;;;25.70;99.90;;;;;;5089310;28;20369;-62
2023/09/12 11:54:43;;;;;;;17.92;9.75;;;25.40;99.90;;;;;;5089430;28;20394;-62
2023/09/12 11:57:14;;;;;;;14.00;9.77;;;25.40;99.90;;;;;;5092270;28;20048;-61
2023/09/12 11:59:43;;;;;;;16.27;11.50;;;25.40;99.90;;;;;;5110454;28;20131;-61
2023/09/12 12:02:11;;;;;;;16.02;11.15;;;25.40;99.90;;;;;;5110932;28;20357;-62
2023/09/12 12:04:38;;;;;;;19.73;11.05;;;25.40;99.90;;;;;;5107681;28;20043;-62
2023/09/12 12:07:04;;;;;;;15.20;10.20;;;25.50;99.90;;;;;;5092553;28;20117;-62
2023/09/12 12:09:30;;;;;;;13.73;8.73;;;25.40;99.90;;;;;;5112102;28;20498;-61
2023/09/12 12:12:00;;;;;;;15.93;10.70;;;25.40;99.90;;;;;;5094445;28;20368;-61
2023/09/12 12:14:26;;;;;;;16.42;11.63;;;25.20;99.90;;;;;;5110385;28;20424;-61
2023/09/12 12:16:52;;;;;;;19.33;11.65;;;25.30;99.90;;;;;;5111435;28;20527;-62
2023/09/12 12:19:18;;;;;;;19.45;13.55;;;;;;;;;;5089743;28;20028;-61
2023/09/12 12:21:44;;;;;;;22.10;13.40;;;25.30;99.90;;;;;;5074138;28;20047;-61
2023/09/12 12:24:13;;;;;;;20.73;13.35;;;25.10;99.90;;;;;;5091401;28;20036;-62
2023/09/12 12:26:43;;;;;;;24.27;14.82;;;25.20;99.90;;;;;;5108006;28;20368;-62
2023/09/12 12:29:10;;;;;;;19.83;13.48;;;25.30;99.90;;;;;;5112323;28;20036;-61
2023/09/12 12:31:37;;;;;;;19.77;13.73;;;25.20;99.90;;;;;;5110707;28;20044;-62
2023/09/12 12:34:03;;;;;;;22.05;14.50;;;;;;;;;;5115542;28;20039;-62
2023/09/12 12:36:29;;;;;;;19.05;13.73;;;;;;;;;;5097010;28;20043;-61
2023/09/12 12:38:55;;;;;;;18.05;12.27;;;24.60;99.90;;;;;;5116318;28;20044;-62
2023/09/12 12:41:28;;;;;;;22.20;11.93;;;24.80;99.90;;;;;;5116243;28;20498;-62
2023/09/12 12:44:00;;;;;;;22.58;13.65;;;25.10;99.90;;;;;;5112034;28;20043;-62
2023/09/12 12:46:28;;;;;;;24.08;15.77;;;24.90;99.90;;;;;;5114426;28;20047;-62
2023/09/12 12:48:55;;;;;;;26.45;14.05;;;;;;;;;;5096825;28;20054;-62
2023/09/12 12:51:25;;;;;;;22.27;14.23;;;25.70;99.90;;;;;;5114212;28;20122;-62
2023/09/12 12:54:05;;;;;;;19.02;11.77;;;25.60;99.90;;;;;;5096748;28;20043;-62
2023/09/12 12:56:32;;;;;;;18.90;11.88;;;;;;;;;;5115375;28;20062;-62
2023/09/12 12:59:02;;;;;;;15.88;10.32;;;25.70;99.90;;;;;;5116102;28;20495;-62
2023/09/12 13:01:27;;;;;;;;;;;25.70;99.90;;;;;;5093729;28;20490;-62
2023/09/12 13:03:54;;;;;;;17.95;9.35;;;26.30;99.90;;;;;;5097720;28;19920;-62
2023/09/12 13:06:20;;;;;;;17.35;10.57;;;25.70;99.90;;;;;;5097227;28;20112;-62
2023/09/12 13:08:48;;;;;;;15.70;10.00;;;26.00;99.90;;;;;;5115309;28;20475;-61
2023/09/12 13:11:15;;;;;;;18.77;9.35;;;25.60;99.90;;;;;;5113016;28;20039;-62
2023/09/12 13:13:42;;;;;;;16.40;8.75;;;25.70;99.90;;;;;;5114172;28;20410;-62
2023/09/12 13:16:09;;;;;;;16.67;9.00;;;26.10;99.90;;;;;;5113599;28;20030;-62
2023/09/12 13:18:36;;;;;;;13.20;7.63;;;25.60;99.90;;;;;;5115805;28;20035;-62
2023/09/12 13:21:03;;;;;;;12.60;7.50;;;25.90;99.90;;;;;;5113810;28;20047;-62
2023/09/12 13:23:29;;;;;;;14.70;8.60;;;25.80;99.90;;;;;;5098182;28;20096;-62
2023/09/12 13:25:56;;;;;;;11.48;7.43;;;25.80;99.90;;;;;;5115639;28;20507;-61
2023/09/12 13:28:25;;;;;;;14.95;8.38;;;25.70;99.90;;;;;;5114432;28;20445;-62
2023/09/12 13:30:51;;;;;;;15.27;9.30;;;;;;;;;;5112380;28;20107;-62
2023/09/12 13:33:17;;;;;;;15.10;8.73;;;;;;;;;;5111373;28;20047;-62
2023/09/12 13:35:43;;;;;;;12.30;8.77;;;;;;;;;;5112061;28;20044;-62
2023/09/12 13:38:09;;;;;;;14.02;8.45;;;;;;;;;;5114722;28;20100;-62
2023/09/12 13:40:39;;;;;;;15.98;9.65;;;25.10;99.90;;;;;;5115440;28;20040;-61
2023/09/12 13:43:11;;;;;;;15.50;11.07;;;24.90;99.90;;;;;;5112943;28;20031;-62